createdAt,value
2019-02-27T00:01:14.675Z,101937.03
2019-02-27T00:03:42.679Z,101941.31
2019-02-27T00:06:12.909Z,101933.66
2019-02-27T00:08:42.096Z,101933.09
2019-02-27T00:11:12.400Z,101924.04
2019-02-27T00:13:41.448Z,101933.55
2019-02-27T00:16:11.166Z,101931.86
2019-02-27T00:18:40.510Z,101934.79
2019-02-27T00:21:11.039Z,101928.48
2019-02-27T00:23:40.116Z,101934.45
2019-02-27T00:26:09.620Z,101926.55
2019-02-27T00:28:38.586Z,101920.52
2019-02-27T00:31:11.193Z,101926.73
2019-02-27T00:33:38.065Z,101929.69
2019-02-27T00:36:06.953Z,101924.18
2019-02-27T00:38:35.893Z,101921.42
2019-02-27T00:41:04.704Z,101923.02
2019-02-27T00:43:33.607Z,101921.87
2019-02-27T00:46:02.493Z,101921.30
2019-02-27T00:48:31.263Z,101917.16
2019-02-27T00:51:00.061Z,101904.65
2019-02-27T00:53:28.956Z,101903.21
2019-02-27T00:55:57.798Z,101907.00
2019-02-27T00:58:27.019Z,101905.88
2019-02-27T01:00:56.588Z,101899.84
2019-02-27T01:03:26.255Z,101897.91
2019-02-27T01:05:55.562Z,101896.80
2019-02-27T01:08:25.135Z,101895.36
2019-02-27T01:10:55.018Z,101891.53
2019-02-27T01:13:23.966Z,101895.85
2019-02-27T01:15:52.818Z,101884.41
2019-02-27T01:18:21.716Z,101883.27
2019-02-27T01:20:50.523Z,101882.16
2019-02-27T01:23:19.362Z,101883.76
2019-02-27T01:25:48.282Z,101882.11
2019-02-27T01:28:17.239Z,101882.35
2019-02-27T01:30:46.079Z,101877.67
2019-02-27T01:33:14.982Z,101884.70
2019-02-27T01:35:43.737Z,101874.63
2019-02-27T01:38:12.591Z,101875.37
2019-02-27T01:40:41.423Z,101867.19
2019-02-27T01:43:10.333Z,101870.43
2019-02-27T01:45:39.195Z,101865.53
2019-02-27T01:48:09.178Z,101866.60
2019-02-27T01:50:39.035Z,101864.09
2019-02-27T01:53:10.961Z,101857.27
2019-02-27T01:55:39.915Z,101856.69
2019-02-27T01:58:09.502Z,101850.36
2019-02-27T02:00:39.198Z,101854.97
2019-02-27T02:03:08.092Z,101854.67
2019-02-27T02:05:36.945Z,101852.73
2019-02-27T02:08:06.386Z,101850.56
2019-02-27T02:10:35.159Z,101847.23
2019-02-27T02:13:14.934Z,101842.88
2019-02-27T02:16:18.530Z,101835.52
2019-02-27T02:19:14.122Z,101839.83
2019-02-27T02:22:30.033Z,101831.32
2019-02-27T02:25:37.843Z,101835.09
2019-02-27T02:28:48.854Z,101828.77
2019-02-27T02:31:32.017Z,101826.55
2019-02-27T02:34:47.468Z,101822.42
2019-02-27T02:37:54.491Z,101817.21
2019-02-27T02:40:54.775Z,101809.03
2019-02-27T02:44:03.891Z,101803.53
2019-02-27T02:47:07.939Z,101801.88
2019-02-27T02:50:24.241Z,101800.77
2019-02-27T02:53:52.212Z,101792.63
2019-02-27T02:56:37.606Z,101786.14
2019-02-27T02:59:42.574Z,101778.02
2019-02-27T03:02:57.524Z,101774.77
2019-02-27T03:06:06.839Z,101767.45
2019-02-27T03:09:44.065Z,101761.83
2019-02-27T03:12:52.281Z,101757.76
2019-02-27T03:15:42.456Z,101756.69
2019-02-27T03:19:05.130Z,101753.69
2019-02-27T03:22:15.444Z,101753.37
2019-02-27T03:25:12.039Z,101747.95
2019-02-27T03:28:30.917Z,101751.72
2019-02-27T03:31:16.291Z,101740.30
2019-02-27T03:34:13.662Z,101740.80
2019-02-27T03:37:28.648Z,101739.16
2019-02-27T03:40:23.618Z,101742.11
2019-02-27T03:43:10.043Z,101737.96
2019-02-27T03:46:06.192Z,101737.92
2019-02-27T03:49:09.701Z,101734.59
2019-02-27T03:52:28.647Z,101732.42
2019-02-27T03:55:42.104Z,101733.19
2019-02-27T03:59:07.659Z,101732.38
2019-02-27T04:01:57.382Z,101732.32
2019-02-27T04:04:40.404Z,101722.75
2019-02-27T04:08:08.322Z,101719.47
2019-02-27T04:10:35.858Z,101721.36
2019-02-27T04:13:04.694Z,101728.37
2019-02-27T04:15:33.655Z,101733.47
2019-02-27T04:18:01.121Z,101727.47
2019-02-27T04:20:29.889Z,101725.05
2019-02-27T04:22:58.710Z,101720.70
2019-02-27T04:25:31.138Z,101718.23
2019-02-27T04:27:58.208Z,101710.34
2019-02-27T04:30:26.983Z,101715.97
2019-02-27T04:32:55.785Z,101709.73
2019-02-27T04:35:24.679Z,101707.26
2019-02-27T04:37:54.408Z,101707.79
2019-02-27T04:40:23.675Z,101703.44
2019-02-27T04:42:52.560Z,101703.14
2019-02-27T04:45:21.399Z,101700.44
2019-02-27T04:47:50.239Z,101699.91
2019-02-27T04:50:19.025Z,101699.38
2019-02-27T04:52:47.923Z,101699.66
2019-02-27T04:55:16.693Z,101696.71
2019-02-27T04:57:45.493Z,101697.53
2019-02-27T05:00:14.376Z,101693.47
2019-02-27T05:02:43.287Z,101689.69
2019-02-27T05:05:12.213Z,101695.72
2019-02-27T05:07:43.169Z,101691.37
2019-02-27T05:10:12.047Z,101700.90
2019-02-27T05:12:40.932Z,101696.55
2019-02-27T05:15:09.748Z,101691.66
2019-02-27T05:17:38.543Z,101693.55
2019-02-27T05:20:11.601Z,101688.34
2019-02-27T05:22:38.186Z,101686.69
2019-02-27T05:25:07.030Z,101685.88
2019-02-27T05:27:35.952Z,101691.00
2019-02-27T05:30:05.292Z,101684.71
2019-02-27T05:32:34.091Z,101687.10
2019-02-27T05:35:02.926Z,101688.70
2019-02-27T05:37:31.866Z,101684.34
2019-02-27T05:40:00.594Z,101680.23
2019-02-27T05:42:29.464Z,101680.44
2019-02-27T05:44:58.250Z,101676.09
2019-02-27T05:47:27.162Z,101680.63
2019-02-27T05:49:57.927Z,101674.60
2019-02-27T05:52:26.804Z,101677.31
2019-02-27T05:54:55.601Z,101672.67
2019-02-27T05:57:24.403Z,101673.73
2019-02-27T05:59:53.186Z,101679.39
2019-02-27T06:02:22.123Z,101672.83
2019-02-27T06:04:50.961Z,101667.41
2019-02-27T06:07:19.805Z,101666.83
2019-02-27T06:09:49.066Z,101671.95
2019-02-27T06:12:18.070Z,101667.31
2019-02-27T06:14:46.883Z,101665.42
2019-02-27T06:17:15.737Z,101664.31
2019-02-27T06:19:44.671Z,101671.59
2019-02-27T06:22:13.497Z,101660.75
2019-02-27T06:24:43.132Z,101665.67
2019-02-27T06:27:12.947Z,101667.31
2019-02-27T06:29:41.770Z,101667.61
2019-02-27T06:32:12.380Z,101666.30
2019-02-27T06:34:41.248Z,101657.59
2019-02-27T06:37:10.138Z,101663.59
2019-02-27T06:39:39.038Z,101659.28
2019-02-27T06:42:08.030Z,101658.55
2019-02-27T06:44:39.915Z,101664.54
2019-02-27T06:47:08.750Z,101667.37
2019-02-27T06:49:37.660Z,101664.72
2019-02-27T06:52:09.048Z,101659.42
2019-02-27T06:54:37.805Z,101660.08
2019-02-27T06:57:07.805Z,101660.20
2019-02-27T06:59:38.547Z,101656.47
2019-02-27T07:02:07.465Z,101654.95
2019-02-27T07:04:36.446Z,101665.38
2019-02-27T07:07:06.798Z,101667.14
2019-02-27T07:09:35.753Z,101669.41
2019-02-27T07:12:04.605Z,101668.45
2019-02-27T07:14:33.554Z,101662.03
2019-02-27T07:17:02.515Z,101656.94
2019-02-27T07:19:31.294Z,101656.66
2019-02-27T07:22:00.152Z,101656.66
2019-02-27T07:24:30.553Z,101658.05
2019-02-27T07:26:59.666Z,101655.17
2019-02-27T07:29:28.465Z,101654.67
2019-02-27T07:31:57.314Z,101652.61
2019-02-27T07:34:26.197Z,101652.97
2019-02-27T07:36:55.064Z,101649.22
2019-02-27T07:39:23.906Z,101652.01
2019-02-27T07:41:52.822Z,101642.84
2019-02-27T07:44:21.777Z,101642.95
2019-02-27T07:46:50.901Z,101643.52
2019-02-27T07:49:19.992Z,101643.05
2019-02-27T07:51:48.856Z,101637.37
2019-02-27T07:54:17.675Z,101645.88
2019-02-27T07:56:46.534Z,101641.84
2019-02-27T07:59:15.385Z,101635.41
2019-02-27T08:01:44.337Z,101637.37
2019-02-27T08:04:13.146Z,101639.43
2019-02-27T08:06:42.097Z,101637.03
2019-02-27T08:09:11.365Z,101639.75
2019-02-27T08:11:40.247Z,101641.77
2019-02-27T08:14:09.109Z,101647.42
2019-02-27T08:16:38.073Z,101648.27
2019-02-27T08:19:08.975Z,101641.37
2019-02-27T08:21:37.597Z,101632.73
2019-02-27T08:24:07.548Z,101636.33
2019-02-27T08:26:37.046Z,101637.67
2019-02-27T08:29:05.849Z,101635.72
2019-02-27T08:31:34.781Z,101630.61
2019-02-27T08:34:03.595Z,101626.13
2019-02-27T08:36:32.434Z,101622.97
2019-02-27T08:39:01.316Z,101622.66
2019-02-27T08:41:31.493Z,101620.41
2019-02-27T08:44:00.780Z,101617.47
2019-02-27T08:46:29.606Z,101616.61
2019-02-27T08:48:58.454Z,101606.84
2019-02-27T08:51:27.382Z,101601.88
2019-02-27T08:53:58.984Z,101597.62
2019-02-27T08:56:27.060Z,101595.59
2019-02-27T08:58:56.075Z,101589.02
2019-02-27T09:01:25.046Z,101585.14
2019-02-27T09:03:53.866Z,101577.73
2019-02-27T09:06:27.273Z,101577.95
2019-02-27T09:08:53.552Z,101573.70
2019-02-27T09:11:22.582Z,101569.09
2019-02-27T09:13:51.645Z,101570.27
2019-02-27T09:16:23.045Z,101560.31
2019-02-27T09:18:51.240Z,101558.02
2019-02-27T09:21:20.277Z,101552.20
2019-02-27T09:23:49.101Z,101546.30
2019-02-27T09:26:17.887Z,101546.38
2019-02-27T09:28:46.773Z,101543.70
2019-02-27T09:31:15.629Z,101542.19
2019-02-27T09:33:44.609Z,101546.00
2019-02-27T09:36:13.456Z,101543.66
2019-02-27T09:38:42.249Z,101532.34
2019-02-27T09:41:12.422Z,101537.05
2019-02-27T09:43:41.963Z,101535.73
2019-02-27T09:46:10.859Z,101537.45
2019-02-27T09:48:40.203Z,101533.14
2019-02-27T09:51:09.058Z,101528.37
2019-02-27T09:53:37.894Z,101528.17
2019-02-27T09:56:06.712Z,101526.10
2019-02-27T09:58:36.064Z,101521.05
2019-02-27T10:01:16.311Z,101514.59
2019-02-27T10:03:45.347Z,101509.85
2019-02-27T10:06:14.246Z,101507.21
2019-02-27T10:08:43.100Z,101504.58
2019-02-27T10:11:12.017Z,101506.75
2019-02-27T10:13:40.914Z,101504.83
2019-02-27T10:16:09.818Z,101501.83
2019-02-27T10:18:38.842Z,101501.30
2019-02-27T10:21:09.366Z,101502.40
2019-02-27T10:23:38.221Z,101498.40
2019-02-27T10:26:07.060Z,101489.87
2019-02-27T10:28:39.703Z,101490.47
2019-02-27T10:31:06.707Z,101485.94
2019-02-27T10:33:35.625Z,101481.97
2019-02-27T10:36:04.528Z,101478.19
2019-02-27T10:38:33.433Z,101470.62
2019-02-27T10:41:02.270Z,101465.20
2019-02-27T10:43:31.317Z,101464.66
2019-02-27T10:46:00.153Z,101460.84
2019-02-27T10:48:29.224Z,101455.13
2019-02-27T10:50:58.043Z,101453.24
2019-02-27T10:53:27.926Z,101442.11
2019-02-27T10:55:56.720Z,101438.58
2019-02-27T10:58:25.816Z,101446.17
2019-02-27T11:00:54.719Z,101444.22
2019-02-27T11:03:26.414Z,101435.80
2019-02-27T11:05:55.581Z,101436.31
2019-02-27T11:08:28.920Z,101434.13
2019-02-27T11:10:55.096Z,101429.75
2019-02-27T11:13:24.204Z,101426.19
2019-02-27T11:15:53.274Z,101412.34
2019-02-27T11:18:22.180Z,101416.66
2019-02-27T11:20:51.136Z,101409.56
2019-02-27T11:23:19.982Z,101403.92
2019-02-27T11:25:48.978Z,101396.36
2019-02-27T11:28:17.866Z,101392.05
2019-02-27T11:30:46.861Z,101387.72
2019-02-27T11:33:25.047Z,101379.08
2019-02-27T11:35:46.497Z,101378.55
2019-02-27T11:38:15.529Z,101378.83
2019-02-27T11:40:44.388Z,101370.98
2019-02-27T11:43:13.129Z,101373.41
2019-02-27T11:45:42.051Z,101356.86
2019-02-27T11:48:10.937Z,101353.83
2019-02-27T11:50:39.895Z,101357.87
2019-02-27T11:53:08.783Z,101356.48
2019-02-27T11:55:37.639Z,101346.67
2019-02-27T11:58:06.473Z,101334.48
2019-02-27T12:00:35.488Z,101330.95
2019-02-27T12:03:04.465Z,101326.06
2019-02-27T12:05:34.468Z,101319.88
2019-02-27T12:08:03.465Z,101321.52
2019-02-27T12:10:32.349Z,101314.73
2019-02-27T12:13:01.742Z,101311.49
2019-02-27T12:15:30.747Z,101304.71
2019-02-27T12:18:01.804Z,101300.67
2019-02-27T12:20:30.369Z,101303.10
2019-02-27T12:22:59.230Z,101290.91
2019-02-27T12:25:30.037Z,101299.38
2019-02-27T12:27:58.512Z,101289.89
2019-02-27T12:30:27.722Z,101284.75
2019-02-27T12:32:57.042Z,101274.18
2019-02-27T12:35:27.946Z,101268.56
2019-02-27T12:37:56.790Z,101266.12
2019-02-27T12:40:25.605Z,101262.36
2019-02-27T12:42:54.596Z,101254.31
2019-02-27T12:45:25.775Z,101245.69
2019-02-27T12:47:54.871Z,101239.19
2019-02-27T12:50:26.870Z,101229.98
2019-02-27T12:52:54.863Z,101225.65
2019-02-27T12:55:23.762Z,101225.11
2019-02-27T12:57:53.089Z,101221.05
2019-02-27T13:00:24.344Z,101214.85
2019-02-27T13:02:53.311Z,101208.09
2019-02-27T13:05:26.393Z,101200.56
2019-02-27T13:07:53.284Z,101198.95
2019-02-27T13:10:22.568Z,101198.67
2019-02-27T13:12:51.923Z,101201.05
2019-02-27T13:15:22.691Z,101198.32
2019-02-27T13:17:56.278Z,101193.66
2019-02-27T13:20:23.868Z,101193.90
2019-02-27T13:22:52.964Z,101192.80
2019-02-27T13:25:24.148Z,101186.30
2019-02-27T13:27:52.457Z,101184.36
2019-02-27T13:30:21.510Z,101178.66
2019-02-27T13:32:50.445Z,101171.88
2019-02-27T13:35:20.084Z,101164.00
2019-02-27T13:37:50.052Z,101159.64
2019-02-27T13:40:19.594Z,101152.59
2019-02-27T13:42:52.388Z,101151.52
2019-02-27T13:45:21.147Z,101141.76
2019-02-27T13:47:50.109Z,101127.10
2019-02-27T13:50:22.377Z,101120.06
2019-02-27T13:52:50.673Z,101116.00
2019-02-27T13:55:19.793Z,101111.39
2019-02-27T13:57:48.857Z,101102.65
2019-02-27T14:00:20.834Z,101096.72
2019-02-27T14:02:50.675Z,101091.80
2019-02-27T14:05:19.579Z,101092.11
2019-02-27T14:07:48.542Z,101092.39
2019-02-27T14:10:20.524Z,101083.71
2019-02-27T14:12:48.256Z,101084.25
2019-02-27T14:15:17.485Z,101078.29
2019-02-27T14:17:46.486Z,101077.75
2019-02-27T14:20:17.006Z,101076.38
2019-02-27T14:22:45.846Z,101070.91
2019-02-27T14:25:17.042Z,101068.13
2019-02-27T14:27:47.557Z,101067.30
2019-02-27T14:30:22.014Z,101064.03
2019-02-27T14:32:51.038Z,101067.28
2019-02-27T14:35:19.920Z,101061.27
2019-02-27T14:37:50.158Z,101062.61
2019-02-27T14:40:20.282Z,101056.59
2019-02-27T14:42:54.012Z,101052.79
2019-02-27T14:45:20.971Z,101048.72
2019-02-27T14:47:49.815Z,101053.05
2019-02-27T14:50:19.863Z,101048.94
2019-02-27T14:52:50.019Z,101044.27
2019-02-27T14:55:19.236Z,101041.53
2019-02-27T14:57:51.092Z,101034.17
2019-02-27T15:00:24.514Z,101035.25
2019-02-27T15:02:55.628Z,101035.78
2019-02-27T15:05:24.281Z,101030.63
2019-02-27T15:07:54.890Z,101027.59
2019-02-27T15:10:24.057Z,101021.07
2019-02-27T15:12:55.096Z,101017.27
2019-02-27T15:15:28.126Z,101017.50
2019-02-27T15:17:57.157Z,101011.80
2019-02-27T15:20:26.587Z,101006.37
2019-02-27T15:22:55.569Z,101006.63
2019-02-27T15:25:24.546Z,101001.48
2019-02-27T15:27:58.378Z,101001.42
2019-02-27T15:30:25.573Z,100996.80
2019-02-27T15:32:54.529Z,100995.97
2019-02-27T15:35:23.512Z,100988.87
2019-02-27T15:37:52.442Z,100983.91
2019-02-27T15:40:22.552Z,100979.83
2019-02-27T15:42:51.470Z,100978.69
2019-02-27T15:45:20.894Z,100972.16
2019-02-27T15:47:49.754Z,100972.64
2019-02-27T15:50:22.653Z,100971.27
2019-02-27T15:52:50.672Z,100971.49
2019-02-27T15:55:19.670Z,100961.44
2019-02-27T15:57:52.050Z,100957.58
2019-02-27T16:00:20.982Z,100958.38
2019-02-27T16:02:49.813Z,100950.20
2019-02-27T16:05:18.753Z,100950.17
2019-02-27T16:07:49.436Z,100939.55
2019-02-27T16:10:19.949Z,100936.28
2019-02-27T16:12:48.878Z,100938.98
2019-02-27T16:15:18.042Z,100938.20
2019-02-27T16:17:47.276Z,100935.48
2019-02-27T16:20:17.117Z,100924.38
2019-02-27T16:22:46.027Z,100921.95
2019-02-27T16:25:19.801Z,100923.08
2019-02-27T16:27:47.611Z,100919.30
2019-02-27T16:30:21.535Z,100914.70
2019-02-27T16:32:50.518Z,100911.98
2019-02-27T16:35:19.545Z,100903.88
2019-02-27T16:37:48.900Z,100897.64
2019-02-27T16:40:18.894Z,100901.98
2019-02-27T16:42:48.194Z,100894.67
2019-02-27T16:45:18.744Z,100889.25
2019-02-27T16:47:47.620Z,100888.72
2019-02-27T16:50:24.555Z,100895.77
2019-02-27T16:52:51.951Z,100895.51
2019-02-27T16:55:22.549Z,100894.16
2019-02-27T16:57:56.563Z,100894.16
2019-02-27T17:00:26.925Z,100890.35
2019-02-27T17:02:57.074Z,100889.59
2019-02-27T17:05:26.146Z,100881.16
2019-02-27T17:08:00.324Z,100879.85
2019-02-27T17:10:29.381Z,100881.20
2019-02-27T17:12:58.746Z,100884.45
2019-02-27T17:15:27.732Z,100880.34
2019-02-27T17:17:56.858Z,100877.09
2019-02-27T17:20:25.855Z,100878.77
2019-02-27T17:22:54.758Z,100871.83
2019-02-27T17:25:28.971Z,100872.80
2019-02-27T17:27:54.917Z,100875.69
2019-02-27T17:30:26.851Z,100870.12
2019-02-27T17:32:55.746Z,100873.73
2019-02-27T17:35:24.689Z,100867.59
2019-02-27T17:37:53.744Z,100857.66
2019-02-27T17:40:22.826Z,100860.69
2019-02-27T17:42:53.571Z,100858.53
2019-02-27T17:45:22.803Z,100849.36
2019-02-27T17:47:51.742Z,100845.34
2019-02-27T17:50:20.743Z,100845.89
2019-02-27T17:52:49.829Z,100847.24
2019-02-27T17:55:19.315Z,100847.80
2019-02-27T17:57:48.265Z,100838.06
2019-02-27T18:00:28.477Z,100838.89
2019-02-27T18:02:57.817Z,100838.93
2019-02-27T18:05:26.823Z,100830.84
2019-02-27T18:07:55.836Z,100830.37
2019-02-27T18:10:24.891Z,100821.72
2019-02-27T18:12:54.004Z,100818.20
2019-02-27T18:15:23.324Z,100816.06
2019-02-27T18:17:52.624Z,100814.77
2019-02-27T18:20:25.547Z,100812.66
2019-02-27T18:22:52.768Z,100800.25
2019-02-27T18:25:21.708Z,100797.32
2019-02-27T18:27:50.778Z,100783.51
2019-02-27T18:30:20.048Z,100783.83
2019-02-27T18:32:49.469Z,100786.55
2019-02-27T18:35:18.946Z,100776.49
2019-02-27T18:37:53.384Z,100775.10
2019-02-27T18:40:20.255Z,100775.08
2019-02-27T18:42:55.190Z,100768.30
2019-02-27T18:45:20.960Z,100761.71
2019-02-27T18:47:50.619Z,100764.41
2019-02-27T18:50:19.799Z,100763.02
2019-02-27T18:52:50.152Z,100764.34
2019-02-27T18:55:19.413Z,100754.81
2019-02-27T18:57:48.511Z,100756.17
2019-02-27T19:00:20.948Z,100753.19
2019-02-27T19:02:53.202Z,100748.58
2019-02-27T19:05:22.867Z,100746.94
2019-02-27T19:07:55.009Z,100736.62
2019-02-27T19:10:23.138Z,100733.38
2019-02-27T19:12:52.230Z,100727.66
2019-02-27T19:15:22.206Z,100731.50
2019-02-27T19:17:51.732Z,100735.05
2019-02-27T19:20:24.686Z,100727.17
2019-02-27T19:22:55.046Z,100723.40
2019-02-27T19:25:24.546Z,100720.39
2019-02-27T19:27:54.957Z,100715.70
2019-02-27T19:30:28.081Z,100710.42
2019-02-27T19:33:01.577Z,100709.45
2019-02-27T19:35:30.553Z,100705.29
2019-02-27T19:38:00.701Z,100705.72
2019-02-27T19:40:31.345Z,100703.70
2019-02-27T19:43:02.682Z,100702.86
2019-02-27T19:45:35.900Z,100697.63
2019-02-27T19:48:04.692Z,100696.78
2019-02-27T19:50:35.078Z,100690.25
2019-02-27T19:53:06.909Z,100691.88
2019-02-27T19:55:36.529Z,100696.52
2019-02-27T19:58:08.019Z,100684.25
2019-02-27T20:00:47.635Z,100681.27
2019-02-27T20:03:10.055Z,100683.26
2019-02-27T20:05:40.264Z,100677.00
2019-02-27T20:08:11.087Z,100671.84
2019-02-27T20:10:40.515Z,100671.02
2019-02-27T20:13:10.759Z,100674.86
2019-02-27T20:15:42.780Z,100674.59
2019-02-27T20:18:12.579Z,100668.59
2019-02-27T20:20:43.037Z,100675.70
2019-02-27T20:23:13.241Z,100671.09
2019-02-27T20:25:44.566Z,100665.13
2019-02-27T20:28:14.800Z,100659.16
2019-02-27T20:30:47.126Z,100657.28
2019-02-27T20:33:17.555Z,100652.97
2019-02-27T20:35:47.966Z,100648.66
2019-02-27T20:38:18.312Z,100645.12
2019-02-27T20:40:49.130Z,100642.95
2019-02-27T20:43:19.347Z,100643.27
2019-02-27T20:45:49.492Z,100639.73
2019-02-27T20:48:19.436Z,100626.99
2019-02-27T20:50:49.839Z,100621.80
2019-02-27T20:53:20.966Z,100620.90
2019-02-27T20:55:52.021Z,100620.53
2019-02-27T20:58:22.245Z,100620.98
2019-02-27T21:00:52.707Z,100618.72
2019-02-27T21:03:26.758Z,100609.95
2019-02-27T21:05:53.761Z,100605.83
2019-02-27T21:08:23.286Z,100610.72
2019-02-27T21:10:55.304Z,100608.55
2019-02-27T21:13:23.136Z,100605.31
2019-02-27T21:15:52.415Z,100594.70
2019-02-27T21:18:21.840Z,100590.63
2019-02-27T21:20:51.196Z,100584.10
2019-02-27T21:23:20.751Z,100581.93
2019-02-27T21:25:50.531Z,100587.09
2019-02-27T21:28:21.129Z,100578.61
2019-02-27T21:30:52.296Z,100567.71
2019-02-27T21:33:22.897Z,100568.55
2019-02-27T21:35:52.458Z,100564.77
2019-02-27T21:38:24.705Z,100555.53
2019-02-27T21:40:54.362Z,100560.47
2019-02-27T21:43:25.597Z,100560.47
2019-02-27T21:45:54.993Z,100555.35
2019-02-27T21:48:26.873Z,100554.30
2019-02-27T21:50:55.144Z,100547.78
2019-02-27T21:53:26.148Z,100543.17
2019-02-27T21:55:54.871Z,100546.23
2019-02-27T21:58:23.846Z,100551.95
2019-02-27T22:00:52.679Z,100541.91
2019-02-27T22:03:21.706Z,100544.95
2019-02-27T22:05:52.975Z,100547.69
2019-02-27T22:08:21.562Z,100542.27
2019-02-27T22:10:53.545Z,100539.29
2019-02-27T22:13:28.960Z,100540.98
2019-02-27T22:15:55.877Z,100536.89
2019-02-27T22:18:23.210Z,100541.83
2019-02-27T22:20:52.050Z,100542.97
2019-02-27T22:23:20.981Z,100538.07
2019-02-27T22:25:49.914Z,100543.29
2019-02-27T22:28:20.114Z,100538.16
2019-02-27T22:30:49.716Z,100538.78
2019-02-27T22:33:22.005Z,100526.02
2019-02-27T22:35:49.350Z,100522.77
2019-02-27T22:38:18.136Z,100526.62
2019-02-27T22:40:47.035Z,100521.47
2019-02-27T22:43:16.105Z,100518.77
2019-02-27T22:45:44.942Z,100520.10
2019-02-27T22:48:13.835Z,100513.62
2019-02-27T22:50:42.733Z,100516.88
2019-02-27T22:53:11.641Z,100515.30
2019-02-27T22:55:42.164Z,100516.09
2019-02-27T22:58:11.148Z,100509.61
2019-02-27T23:01:09.765Z,100511.52
2019-02-27T23:03:42.016Z,100506.11
2019-02-27T23:06:12.245Z,100496.61
2019-02-27T23:08:41.626Z,100497.16
2019-02-27T23:11:10.515Z,100498.55
2019-02-27T23:13:39.347Z,100498.27
2019-02-27T23:16:08.194Z,100493.67
2019-02-27T23:18:37.434Z,100493.15
2019-02-27T23:21:07.624Z,100486.38
2019-02-27T23:23:36.741Z,100476.34
2019-02-27T23:26:06.282Z,100473.89
2019-02-27T23:28:35.463Z,100467.94
2019-02-27T23:31:04.388Z,100464.41
2019-02-27T23:33:35.905Z,100467.14
2019-02-27T23:36:03.888Z,100467.17
2019-02-27T23:38:34.716Z,100466.91
2019-02-27T23:41:03.512Z,100464.73
2019-02-27T23:43:34.004Z,100456.86
2019-02-27T23:46:03.097Z,100452.25
2019-02-27T23:48:35.902Z,100458.23
2019-02-27T23:51:02.690Z,100450.08
2019-02-27T23:53:31.611Z,100454.44
2019-02-27T23:56:00.553Z,100453.61
2019-02-27T23:58:30.334Z,100451.99
